Time;durP1;ratioP1;P1;durP2;ratioP2;P2;SDS_P1;SDS_P2;PMS_P1;PMS_P2;Temp;Humidity;BMP_temperature;BMP_pressure;BME280_temperature;BME280_humidity;BME280_pressure;Samples;Min_cycle;Max_cycle;Signal;HPM_P1;HPM_P2
2021/08/11 00:00:10;;;;;;;13.93;9.77;;;;;;;12.21;100.00;101781.72;3611891;39;20051;-62
2021/08/11 00:02:36;;;;;;;14.13;9.18;;;;;;;12.26;100.00;101785.78;3615463;39;20029;-62
2021/08/11 00:05:04;;;;;;;15.85;8.88;;;;;;;12.30;100.00;101780.13;3614486;39;20049;-62
2021/08/11 00:07:30;;;;;;;13.25;9.82;;;;;;;12.30;100.00;101783.66;3612592;39;20041;-62
2021/08/11 00:09:57;;;;;;;17.05;10.25;;;;;;;12.22;100.00;101775.31;3613954;39;20039;-62
2021/08/11 00:12:23;;;;;;;17.40;9.80;;;;;;;12.20;100.00;101778.16;3613162;39;20047;-62
2021/08/11 00:14:51;;;;;;;17.27;9.70;;;;;;;12.22;100.00;101784.31;3613858;39;20115;-62
2021/08/11 00:17:18;;;;;;;15.35;9.52;;;;;;;12.29;100.00;101773.84;3612594;39;20044;-61
2021/08/11 00:19:44;;;;;;;13.63;9.18;;;;;;;12.23;100.00;101780.63;3611742;39;20039;-62
2021/08/11 00:22:10;;;;;;;17.17;10.02;;;;;;;12.16;100.00;101779.41;3612962;39;20035;-62
2021/08/11 00:24:37;;;;;;;16.00;9.82;;;;;;;12.16;100.00;101781.22;3611802;39;20058;-62
2021/08/11 00:27:03;;;;;;;13.15;9.07;;;;;;;12.21;100.00;101781.72;3613078;39;20481;-62
2021/08/11 00:29:30;;;;;;;15.63;9.70;;;;;;;12.24;100.00;101781.47;3610125;39;20043;-62
2021/08/11 00:35:08;;;;;;;15.35;10.70;;;;;;;12.08;100.00;101784.53;3607732;22;20045;-62
2021/08/11 00:37:35;;;;;;;15.20;9.65;;;;;;;12.03;100.00;101773.28;3582248;40;20061;-62
2021/08/11 00:40:01;;;;;;;16.10;9.55;;;;;;;12.04;100.00;101781.25;3582784;40;20039;-62
2021/08/11 00:42:28;;;;;;;16.10;10.00;;;;;;;11.99;100.00;101782.59;3582602;40;20045;-62
2021/08/11 00:44:55;;;;;;;13.77;9.75;;;;;;;11.98;100.00;101786.25;3584039;40;20124;-62
2021/08/11 00:47:22;;;;;;;14.27;9.65;;;;;;;12.04;100.00;101783.06;3581998;40;20037;-62
2021/08/11 00:49:49;;;;;;;16.35;10.38;;;;;;;12.11;100.00;101786.16;3582779;40;20033;-62
2021/08/11 00:52:16;;;;;;;16.65;9.75;;;;;;;12.06;100.00;101783.81;3583842;40;20044;-62
2021/08/11 00:54:44;;;;;;;14.45;10.15;;;;;;;12.04;100.00;101777.66;3582941;39;20400;-62
2021/08/11 00:57:13;;;;;;;14.70;9.88;;;;;;;12.07;100.00;101780.13;3581731;40;20033;-62
2021/08/11 00:59:40;;;;;;;15.38;10.35;;;;;;;12.04;100.00;101774.97;3580130;40;20123;-62
2021/08/11 01:02:09;;;;;;;20.17;10.70;;;;;;;11.99;100.00;101766.41;3583733;40;20049;-62
2021/08/11 01:04:38;;;;;;;20.25;11.40;;;;;;;11.96;100.00;101767.50;3582086;40;20041;-62
2021/08/11 01:07:06;;;;;;;15.30;10.77;;;;;;;12.02;100.00;101776.94;3583758;40;20107;-62
2021/08/11 01:09:34;;;;;;;18.73;11.65;;;;;;;12.04;100.00;101774.97;3582340;40;20373;-62
2021/08/11 01:12:01;;;;;;;19.50;11.85;;;;;;;12.02;100.00;101779.66;3583782;40;20035;-62
2021/08/11 01:14:29;;;;;;;17.27;11.80;;;;;;;12.00;100.00;101784.28;3586329;40;20047;-62
2021/08/11 01:16:56;;;;;;;17.85;12.02;;;;;;;11.98;100.00;101780.88;3582073;40;20402;-62
2021/08/11 01:19:22;;;;;;;18.25;11.77;;;;;;;11.98;100.00;101776.31;3585906;40;20031;-62
2021/08/11 01:21:55;;;;;;;19.20;11.48;;;;;;;11.95;100.00;101773.88;3584084;40;20037;-61
2021/08/11 01:24:29;;;;;;;16.55;11.32;;;;;;;11.92;100.00;101774.09;3642796;22;20333;-62
2021/08/11 01:27:26;;;;;;;19.38;11.93;;;;;;;11.93;100.00;101775.84;3601956;39;20028;-62
2021/08/11 01:30:07;;;;;;;19.15;13.07;;;;;;;12.00;100.00;101773.50;3604999;39;20038;-62
2021/08/11 01:32:47;;;;;;;24.05;13.27;;;;;;;12.01;100.00;101778.78;3602251;39;20040;-61
2021/08/11 01:35:19;;;;;;;20.55;12.82;;;;;;;12.00;100.00;101787.00;3606515;39;20031;-62
2021/08/11 01:37:51;;;;;;;17.20;12.45;;;;;;;12.00;100.00;101784.28;3604293;39;20083;-62
2021/08/11 01:40:22;;;;;;;20.65;12.35;;;;;;;11.97;100.00;101782.72;3603608;39;20038;-61
2021/08/11 01:42:51;;;;;;;17.48;12.07;;;;;;;11.96;100.00;101772.06;3602293;39;20062;-61
2021/08/11 01:45:20;;;;;;;17.43;11.77;;;;;;;11.88;100.00;101772.59;3606175;39;20372;-62
2021/08/11 01:47:52;;;;;;;21.33;12.65;;;;;;;11.85;100.00;101779.13;3602365;39;20024;-62
2021/08/11 01:50:22;;;;;;;19.63;13.07;;;;;;;11.81;100.00;101774.94;3660120;22;20151;-62
2021/08/11 01:52:49;;;;;;;;;;;;;;;11.79;100.00;101771.50;3583410;40;20040;-62
2021/08/11 01:55:16;;;;;;;19.48;13.18;;;;;;;11.74;100.00;101779.09;3579953;40;19941;-62
2021/08/11 01:57:47;;;;;;;20.20;11.98;;;;;;;11.72;100.00;101778.38;3581009;40;20374;-62
2021/08/11 02:00:14;;;;;;;20.88;12.45;;;;;;;11.76;100.00;101777.13;3582611;40;20029;-62
2021/08/11 02:02:41;;;;;;;22.95;12.90;;;;;;;11.74;100.00;101784.50;3582262;40;20041;-62
2021/08/11 02:05:10;;;;;;;17.30;12.10;;;;;;;11.75;100.00;101781.69;3584205;40;20033;-62
2021/08/11 02:07:39;;;;;;;20.23;13.50;;;;;;;11.76;100.00;101777.13;3582913;40;20309;-62
2021/08/11 02:10:07;;;;;;;18.73;13.32;;;;;;;11.77;100.00;101781.56;3581819;40;20043;-62
2021/08/11 02:12:35;;;;;;;20.67;13.55;;;;;;;11.69;100.00;101778.59;3583092;40;20042;-62
2021/08/11 02:15:02;;;;;;;19.58;13.90;;;;;;;11.64;100.00;101783.50;3586078;40;20036;-62
2021/08/11 02:17:30;;;;;;;20.67;12.95;;;;;;;11.68;100.00;101774.22;3583110;40;20291;-62
2021/08/11 02:19:56;;;;;;;20.08;13.18;;;;;;;11.66;100.00;101776.16;3584992;40;20045;-62
2021/08/11 02:22:22;;;;;;;20.75;13.85;;;;;;;11.63;100.00;101771.00;3580877;40;20063;-62
2021/08/11 02:24:50;;;;;;;20.45;12.82;;;;;;;11.65;100.00;101769.91;3583784;40;20209;-62
2021/08/11 02:27:20;;;;;;;21.30;13.45;;;;;;;11.65;100.00;101775.31;3579866;40;20041;-62
2021/08/11 02:29:49;;;;;;;;;;;;;;;11.67;100.00;101767.09;3582511;40;20055;-61
2021/08/11 02:32:22;;;;;;;23.73;14.05;;;;;;;11.76;100.00;101777.13;3578975;40;20017;-62
2021/08/11 02:35:00;;;;;;;20.35;12.65;;;;;;;11.72;100.00;101776.53;3580203;40;20291;-62
2021/08/11 02:37:32;;;;;;;19.45;12.63;;;;;;;11.70;100.00;101769.53;3585474;40;20375;-62
2021/08/11 02:42:39;;;;;;;16.52;11.15;;;;;;;11.65;100.00;101779.84;3667030;22;20051;-62
2021/08/11 02:45:10;;;;;;;18.65;12.38;;;;;;;11.57;100.00;101775.91;3604407;39;20030;-62
2021/08/11 02:47:39;;;;;;;17.77;12.52;;;;;;;11.54;100.00;101772.56;3602624;39;20032;-62
2021/08/11 02:50:07;;;;;;;16.23;12.00;;;;;;;11.58;100.00;101777.59;3601884;39;20037;-62
2021/08/11 02:52:35;;;;;;;17.92;11.57;;;;;;;11.52;100.00;101772.69;3601941;39;20033;-62
2021/08/11 02:55:04;;;;;;;18.33;11.98;;;;;;;11.45;100.00;101776.00;3599220;39;20058;-62
2021/08/11 02:57:32;;;;;;;18.25;11.63;;;;;;;11.49;100.00;101774.78;3601527;39;20301;-62
2021/08/11 03:00:00;;;;;;;20.55;11.60;;;;;;;11.48;100.00;101773.91;3602742;39;20049;-62
2021/08/11 03:02:27;;;;;;;20.05;11.98;;;;;;;11.41;100.00;101775.41;3603559;39;20044;-62
2021/08/11 03:04:53;;;;;;;18.38;12.23;;;;;;;11.36;100.00;101769.47;3601558;39;20064;-61
2021/08/11 03:07:21;;;;;;;20.90;13.23;;;;;;;11.30;100.00;101767.28;3604504;39;20139;-62
2021/08/11 03:09:48;;;;;;;21.92;13.02;;;;;;;11.32;100.00;101773.38;3603029;39;20041;-62
2021/08/11 03:12:16;;;;;;;18.30;12.23;;;;;;;11.32;100.00;101778.78;3605039;39;20047;-61
2021/08/11 03:14:45;;;;;;;22.30;13.18;;;;;;;11.36;100.00;101774.88;3603630;39;20038;-62
2021/08/11 03:17:12;;;;;;;23.23;15.18;;;;;;;11.36;100.00;101774.88;3606790;39;20112;-62
2021/08/11 03:19:40;;;;;;;22.40;14.35;;;;;;;11.38;100.00;101776.47;3606279;39;20045;-62
2021/08/11 03:22:09;;;;;;;24.13;14.95;;;;;;;11.49;100.00;101775.63;3605364;39;20042;-61
2021/08/11 03:24:36;;;;;;;21.10;14.57;;;;;;;11.47;100.00;101782.13;3600754;39;20066;-61
2021/08/11 03:27:03;;;;;;;25.65;14.50;;;;;;;11.49;100.00;101774.78;3601143;39;20040;-62
2021/08/11 03:29:30;;;;;;;24.45;14.25;;;;;;;11.47;100.00;101783.00;3601157;39;20039;-62
2021/08/11 03:31:57;;;;;;;20.80;13.15;;;;;;;11.50;100.00;101788.16;3599412;39;20044;-61
2021/08/11 03:34:23;;;;;;;19.65;13.35;;;;;;;11.44;100.00;101780.53;3601698;39;20054;-61
2021/08/11 03:36:50;;;;;;;18.38;11.98;;;;;;;11.44;100.00;101783.25;3602605;39;20044;-61
2021/08/11 03:39:16;;;;;;;21.75;12.68;;;;;;;11.39;100.00;101780.91;3600770;39;20411;-62
2021/08/11 03:41:42;;;;;;;18.52;12.50;;;;;;;11.40;100.00;101774.50;3603863;39;20379;-62
2021/08/11 03:44:09;;;;;;;19.45;12.25;;;;;;;11.32;100.00;101773.38;3592634;39;20489;-62
2021/08/11 03:46:37;;;;;;;21.10;12.30;;;;;;;11.37;100.00;101776.59;3591413;40;20030;-62
2021/08/11 03:49:03;;;;;;;19.50;12.73;;;;;;;11.33;100.00;101772.41;3592924;39;20054;-61
2021/08/11 03:51:30;;;;;;;23.33;13.55;;;;;;;11.33;100.00;101769.72;3591699;40;20389;-62
2021/08/11 03:53:56;;;;;;;21.45;12.60;;;;;;;11.27;100.00;101773.75;3589390;40;20379;-62
2021/08/11 03:58:53;;;;;;;18.58;12.80;;;;;;;11.29;100.00;101773.63;3631263;22;20311;-61
2021/08/11 04:01:19;;;;;;;20.20;12.93;;;;;;;11.28;100.00;101771.91;3593314;40;20104;-62
2021/08/11 04:03:47;;;;;;;20.35;13.27;;;;;;;11.24;100.00;101775.84;3593462;40;20378;-61
2021/08/11 04:06:14;;;;;;;20.17;11.90;;;;;;;11.25;100.00;101786.50;3591913;40;20399;-62
2021/08/11 04:08:40;;;;;;;19.50;12.00;;;;;;;11.27;100.00;101780.97;3591469;40;20356;-62
2021/08/11 04:11:07;;;;;;;20.33;12.23;;;;;;;11.22;100.00;101774.09;3591566;40;20048;-61
2021/08/11 04:13:33;;;;;;;20.88;13.52;;;;;;;11.26;100.00;101784.66;3592478;40;20038;-61
2021/08/11 04:15:59;;;;;;;21.48;13.70;;;;;;;11.29;100.00;101779.03;3591285;40;20036;-62
2021/08/11 04:18:26;;;;;;;23.80;13.07;;;;;;;11.33;100.00;101785.91;3593352;39;20053;-62
2021/08/11 04:20:54;;;;;;;21.92;13.70;;;;;;;11.30;100.00;101786.13;3592870;39;20035;-62
2021/08/11 04:23:20;;;;;;;23.15;14.43;;;;;;;11.33;100.00;101783.19;3591854;40;20037;-62
2021/08/11 04:25:47;;;;;;;22.17;14.73;;;;;;;11.39;100.00;101790.81;3589413;40;20040;-62
2021/08/11 04:28:13;;;;;;;21.70;14.23;;;;;;;11.42;100.00;101790.56;3591510;40;20380;-62
2021/08/11 04:30:41;;;;;;;23.88;15.15;;;;;;;11.41;100.00;101791.56;3591028;40;20025;-62
2021/08/11 04:33:07;;;;;;;25.90;14.57;;;;;;;11.39;100.00;101793.50;3590348;40;20036;-61
2021/08/11 04:35:33;;;;;;;21.63;13.73;;;;;;;11.42;100.00;101798.66;3591966;39;20068;-62
2021/08/11 04:38:01;;;;;;;23.45;14.73;;;;;;;11.54;100.00;101789.63;3593763;40;20041;-62
2021/08/11 04:40:28;;;;;;;22.63;13.95;;;;;;;11.48;100.00;101795.47;3592893;40;20314;-62
2021/08/11 04:42:54;;;;;;;21.33;14.40;;;;;;;11.57;100.00;101791.22;3594103;39;20047;-62
2021/08/11 04:45:21;;;;;;;20.60;13.85;;;;;;;11.60;100.00;101788.31;3592646;40;20080;-62
2021/08/11 04:47:48;;;;;;;21.42;15.00;;;;;;;11.64;100.00;101794.28;3654979;22;20287;-62
2021/08/11 04:50:15;;;;;;;26.02;15.82;;;;;;;11.69;100.00;101794.78;3591716;39;20480;-62
2021/08/11 04:52:41;;;;;;;21.95;14.73;;;;;;;11.71;100.00;101790.16;3591676;40;20064;-61
2021/08/11 04:55:12;;;;;;;26.52;15.35;;;;;;;11.74;100.00;101789.91;3593891;39;20036;-62
2021/08/11 04:57:39;;;;;;;22.77;15.73;;;;;;;11.77;100.00;101794.19;3595556;39;20024;-64
2021/08/11 05:00:06;;;;;;;21.65;15.30;;;;;;;11.81;100.00;101791.13;3594670;39;20040;-61
2021/08/11 05:02:33;;;;;;;23.10;15.23;;;;;;;11.88;100.00;101797.75;3593829;39;20038;-62
2021/08/11 05:04:59;;;;;;;26.17;16.13;;;;;;;11.95;100.00;101800.84;3591721;39;20384;-62
2021/08/11 05:07:26;;;;;;;23.20;15.50;;;;;;;12.09;100.00;101810.56;3592847;39;20036;-62
2021/08/11 05:09:52;;;;;;;23.42;16.08;;;;;;;12.19;100.00;101806.13;3591992;40;20035;-62
2021/08/11 05:12:20;;;;;;;23.13;15.73;;;;;;;12.24;100.00;101813.88;3593097;39;20395;-61
2021/08/11 05:14:47;;;;;;;28.02;16.85;;;;;;;12.32;100.00;101805.97;3593561;39;20055;-62
2021/08/11 05:17:13;;;;;;;26.58;16.45;;;;;;;12.49;100.00;101811.88;3594036;39;20124;-62
2021/08/11 05:19:39;;;;;;;23.88;17.05;;;;;;;12.61;100.00;101816.25;3595860;39;20041;-62
2021/08/11 05:22:06;;;;;;;30.30;20.58;;;;;;;12.67;100.00;101814.91;3594740;39;20398;-62
2021/08/11 05:24:32;;;;;;;35.70;19.63;;;;;;;12.83;100.00;101812.66;3591441;39;20046;-62
2021/08/11 05:26:59;;;;;;;29.80;19.05;;;;;;;12.91;100.00;101812.88;3592281;39;20396;-61
2021/08/11 05:29:27;;;;;;;34.95;20.92;;;;;;;13.13;100.00;101814.63;3595608;39;20040;-62
2021/08/11 05:31:53;;;;;;;32.45;19.02;;;;;;;13.14;100.00;101810.06;3594450;39;20375;-62
2021/08/11 05:34:20;;;;;;;30.48;21.33;;;;;;;13.28;100.00;101808.88;3593657;39;20066;-62
2021/08/11 05:36:47;;;;;;;30.20;19.77;;;;;;;13.31;100.00;101806.81;3593254;39;20029;-61
2021/08/11 05:39:13;;;;;;;33.58;21.52;;;;;;;13.43;100.00;101814.91;3591501;39;20037;-61
2021/08/11 05:41:40;;;;;;;34.42;22.20;;;;;;;13.48;100.00;101809.94;3593814;39;20040;-62
2021/08/11 05:44:07;;;;;;;42.80;23.55;;;;;;;13.55;100.00;101821.94;3589954;39;20403;-62
2021/08/11 05:46:35;;;;;;;32.50;22.10;;;;;;;13.65;100.00;101820.16;3591769;39;20125;-62
2021/08/11 05:49:02;;;;;;;33.33;21.55;;;;;;;13.62;100.00;101828.53;3592215;39;20047;-61
2021/08/11 05:51:30;;;;;;;35.45;23.33;;;;;;;13.75;100.00;101822.06;3591831;39;20051;-62
2021/08/11 05:53:57;;;;;;;38.70;24.70;;;;;;;13.85;100.00;101831.09;3595117;39;20044;-61
2021/08/11 05:56:24;;;;;;;35.72;23.65;;;;;;;13.84;100.00;101819.41;3591327;39;20661;-62
2021/08/11 05:58:51;;;;;;;38.67;23.58;;;;;;;13.86;100.00;101819.28;3593183;39;20302;-61
2021/08/11 06:01:17;;;;;;;38.22;23.33;;;;;;;13.94;100.00;101818.59;3592116;39;20037;-61
2021/08/11 06:03:45;;;;;;;39.20;23.70;;;;;;;14.00;100.00;101821.66;3593147;39;20485;-62
2021/08/11 06:06:13;;;;;;;38.47;24.42;;;;;;;14.12;100.00;101824.25;3591370;39;20049;-62
2021/08/11 06:08:40;;;;;;;40.00;24.23;;;;;;;14.14;100.00;101830.41;3592157;39;20032;-62
2021/08/11 06:11:06;;;;;;;36.90;22.95;;;;;;;14.15;100.00;101832.13;3590712;39;20028;-61
2021/08/11 06:13:33;;;;;;;34.15;23.52;;;;;;;14.30;100.00;101833.44;3593323;39;20385;-62
2021/08/11 06:15:59;;;;;;;36.50;24.38;;;;;;;14.39;100.00;101842.59;3592535;39;20432;-61
2021/08/11 06:18:25;;;;;;;34.65;22.15;;;;;;;14.46;100.00;101845.63;3592196;39;20056;-61
2021/08/11 06:20:53;;;;;;;36.90;23.05;;;;;;;14.61;100.00;101857.81;3590395;40;20347;-61
2021/08/11 06:23:20;;;;;;;38.22;22.83;;;;;;;14.81;100.00;101857.88;3590612;39;20028;-61
2021/08/11 06:25:47;;;;;;;36.30;23.80;;;;;;;15.05;100.00;101855.63;3589525;40;20041;-62
2021/08/11 06:28:13;;;;;;;31.67;22.50;;;;;;;15.12;100.00;101861.34;3593022;39;20040;-61
2021/08/11 06:30:40;;;;;;;36.50;23.45;;;;;;;15.29;100.00;101857.06;3588800;40;20045;-62
2021/08/11 06:33:07;;;;;;;37.45;23.95;;;;;;;15.40;100.00;101851.50;3588715;40;20273;-62
2021/08/11 06:35:34;;;;;;;30.70;20.95;;;;;;;15.55;100.00;101851.06;3591947;40;20040;-62
2021/08/11 06:38:02;;;;;;;32.47;21.23;;;;;;;15.59;100.00;101852.47;3592519;39;20076;-61
2021/08/11 06:40:28;;;;;;;35.83;22.27;;;;;;;15.71;100.00;101855.91;3592477;39;20406;-61
2021/08/11 06:42:56;;;;;;;32.45;19.83;;;;;;;15.74;100.00;101859.16;3590971;40;20416;-61
2021/08/11 06:45:22;;;;;;;30.33;20.45;;;;;;;15.89;100.00;101853.31;3591511;39;20078;-61
2021/08/11 06:47:49;;;;;;;31.40;19.45;;;;;;;15.99;100.00;101858.72;3589374;40;20054;-62
2021/08/11 06:50:15;;;;;;;27.23;17.98;;;;;;;16.04;100.00;101856.41;3590284;39;20056;-61
2021/08/11 06:52:42;;;;;;;28.35;17.45;;;;;;;16.23;100.00;101859.06;3589078;39;20035;-61
2021/08/11 06:55:12;;;;;;;27.88;17.40;;;;;;;16.29;100.00;101853.03;3589447;40;20278;-61
2021/08/11 06:57:39;;;;;;;24.23;16.77;;;;;;;16.39;100.00;101855.72;3590085;39;20048;-62
2021/08/11 07:00:09;;;;;;;26.15;17.70;;;;;;;16.52;100.00;101849.94;3588714;39;20068;-62
2021/08/11 07:02:35;;;;;;;23.67;16.90;;;;;;;16.47;100.00;101849.50;3592980;39;20312;-62
2021/08/11 07:05:02;;;;;;;22.98;16.33;;;;;;;16.69;100.00;101850.97;3591226;40;20033;-61
2021/08/11 07:07:29;;;;;;;23.30;17.02;;;;;;;16.86;100.00;101853.88;3592511;39;20034;-61
2021/08/11 07:09:56;;;;;;;26.50;16.00;;;;;;;16.88;100.00;101854.63;3590151;40;20336;-62
2021/08/11 07:12:23;;;;;;;26.02;16.60;;;;;;;16.87;100.00;101844.72;3591671;39;20076;-61
2021/08/11 07:14:52;;;;;;;23.77;16.70;;;;;;;16.89;100.00;101846.31;3593168;39;20375;-62
2021/08/11 07:17:18;;;;;;;19.73;15.57;;;;;;;17.12;100.00;101844.00;3590669;39;20754;-61
2021/08/11 07:19:44;;;;;;;23.77;17.23;;;;;;;17.10;100.00;101840.56;3589450;40;20404;-61
2021/08/11 07:22:11;;;;;;;23.67;16.20;;;;;;;17.36;100.00;101847.09;3589650;40;20034;-61
2021/08/11 07:24:38;;;;;;;22.90;15.25;;;;;;;17.25;100.00;101843.59;3590687;40;20028;-61
2021/08/11 07:27:05;;;;;;;22.50;14.23;;;;;;;17.41;100.00;101842.88;3589029;39;20392;-61
2021/08/11 07:29:41;;;;;;;22.35;14.90;;;;;;;17.44;100.00;101839.00;3623420;22;20077;-61
2021/08/11 07:32:08;;;;;;;18.67;13.80;;;;;;;17.48;100.00;101840.41;3568398;39;20054;-62
2021/08/11 07:34:34;;;;;;;21.38;14.82;;;;;;;17.59;100.00;101847.44;3568603;40;20507;-62
2021/08/11 07:37:01;;;;;;;16.10;12.40;;;;;;;17.92;100.00;101843.13;3573231;40;20382;-61
2021/08/11 07:39:27;;;;;;;18.35;12.70;;;;;;;18.09;100.00;101841.34;3570775;40;20046;-61
2021/08/11 07:41:54;;;;;;;18.02;11.65;;;;;;;18.10;100.00;101850.38;3573170;40;20373;-61
2021/08/11 07:44:20;;;;;;;13.07;10.90;;;;;;;18.10;100.00;101845.78;3569126;40;20033;-61
2021/08/11 07:46:48;;;;;;;17.98;11.20;;;;;;;18.38;100.00;101842.88;3571140;40;20114;-62
2021/08/11 07:49:15;;;;;;;17.42;11.15;;;;;;;18.49;100.00;101850.75;3568936;40;20400;-62
2021/08/11 07:51:41;;;;;;;19.50;10.50;;;;;;;18.82;100.00;101845.41;3569546;40;20414;-62
2021/08/11 07:54:08;;;;;;;18.35;11.13;;;;;;;18.87;100.00;101848.53;3568451;40;20053;-62
2021/08/11 07:56:34;;;;;;;16.50;11.07;;;;;;;18.69;100.00;101850.47;3568255;40;20034;-62
2021/08/11 07:59:01;;;;;;;15.80;10.88;;;;;;;18.72;100.00;101848.25;3567591;40;20036;-62
2021/08/11 08:01:27;;;;;;;18.80;11.68;;;;;;;18.81;100.00;101843.69;3570704;40;20075;-61
2021/08/11 08:03:55;;;;;;;14.77;10.50;;;;;;;19.17;100.00;101848.91;3573448;40;20047;-62
2021/08/11 08:06:21;;;;;;;17.10;11.02;;;;;;;19.11;100.00;101844.13;3569852;40;20114;-62
2021/08/11 08:08:48;;;;;;;14.02;9.10;;;;;;;19.13;100.00;101847.53;3571596;40;20419;-62
2021/08/11 08:11:14;;;;;;;11.95;9.18;;;;;;;19.09;100.00;101848.88;3569792;40;20059;-62
2021/08/11 08:13:41;;;;;;;14.85;9.93;;;;;;;19.17;100.00;101848.03;3572118;40;20034;-62
2021/08/11 08:16:07;;;;;;;12.90;8.90;;;;;;;19.60;100.00;101841.41;3571761;40;20035;-62
2021/08/11 08:18:34;;;;;;;9.35;6.47;;;;;;;19.83;100.00;101843.47;3570002;40;20069;-61
2021/08/11 08:21:03;;;;;;;11.30;6.68;;;;;;;19.87;100.00;101839.34;3570434;40;20043;-62
2021/08/11 08:23:29;;;;;;;10.57;5.80;;;;;;;20.29;100.00;101843.69;3569042;40;20030;-61
2021/08/11 08:25:56;;;;;;;9.82;5.68;;;;;;;19.99;100.00;101834.38;3568654;40;20045;-62
2021/08/11 08:28:22;;;;;;;7.25;5.72;;;;;;;20.13;100.00;101838.28;3568193;40;20080;-63
2021/08/11 08:30:48;;;;;;;9.05;5.95;;;;;;;19.53;100.00;101842.28;3567751;40;20045;-61
2021/08/11 08:33:15;;;;;;;9.18;5.82;;;;;;;19.48;100.00;101840.06;3569882;40;20061;-62
2021/08/11 08:35:42;;;;;;;8.35;5.43;;;;;;;19.66;100.00;101836.28;3570566;40;20131;-63
2021/08/11 08:38:10;;;;;;;8.45;6.18;;;;;;;19.60;100.00;101841.41;3571498;40;20041;-62
2021/08/11 08:43:06;;;;;;;9.73;6.00;;;;;;;19.59;100.00;101847.88;3623793;22;20052;-62
2021/08/11 08:45:33;;;;;;;9.00;5.40;;;;;;;19.71;100.00;101855.72;3600218;39;20039;-61
2021/08/11 08:48:04;;;;;;;7.32;5.20;;;;;;;19.83;100.00;101848.94;3599361;39;20036;-61
2021/08/11 08:50:31;;;;;;;7.45;4.95;;;;;;;20.05;100.00;101846.47;3598916;39;20048;-64
2021/08/11 08:52:59;;;;;;;7.15;4.68;;;;;;;19.88;100.00;101843.78;3598042;39;20395;-61
2021/08/11 08:55:27;;;;;;;7.03;4.90;;;;;;;19.54;100.00;101847.56;3598406;39;20028;-61
2021/08/11 08:57:54;;;;;;;8.32;4.72;;;;;;;19.69;100.00;101852.34;3599337;39;20414;-61
2021/08/11 09:00:22;;;;;;;11.45;4.53;;;;;;;19.80;100.00;101856.59;3599388;39;20390;-61
2021/08/11 09:02:48;;;;;;;6.28;4.30;;;;;;;20.11;100.00;101852.13;3604521;39;20401;-64
2021/08/11 09:05:15;;;;;;;5.85;3.95;;;;;;;20.36;100.00;101857.50;3601410;39;20046;-62
2021/08/11 09:07:44;;;;;;;7.03;5.05;;;;;;;20.64;100.00;101857.03;3600245;39;20459;-62
2021/08/11 09:10:19;;;;;;;7.30;4.13;;;;;;;21.02;100.00;101859.09;3599601;39;20052;-61
2021/08/11 09:12:48;;;;;;;7.13;4.10;;;;;;;20.67;100.00;101861.31;3603034;39;20048;-60
2021/08/11 09:15:30;;;;;;;6.65;4.05;;;;;;;20.09;100.00;101856.03;3601494;39;20417;-63
2021/08/11 09:17:58;;;;;;;6.53;4.13;;;;;;;19.92;100.00;101853.34;3603316;39;20027;-62
2021/08/11 09:20:26;;;;;;;6.03;4.07;;;;;;;20.05;100.00;101850.09;3600244;39;20055;-61
2021/08/11 09:22:56;;;;;;;5.72;3.78;;;;;;;20.36;100.00;101853.91;3602217;39;20050;-62
2021/08/11 09:25:23;;;;;;;10.00;4.30;;;;;;;20.53;100.00;101852.81;3602339;39;20068;-64
2021/08/11 09:27:51;;;;;;;6.90;4.05;;;;;;;20.72;100.00;101847.97;3600771;39;20059;-62
2021/08/11 09:30:19;;;;;;;6.18;4.25;;;;;;;20.90;100.00;101842.22;3598713;39;20036;-62
2021/08/11 09:32:52;;;;;;;7.80;4.10;;;;;;;21.08;100.00;101845.53;3598736;39;20117;-62
2021/08/11 09:35:20;;;;;;;6.07;4.53;;;;;;;21.22;100.00;101848.53;3601723;39;20043;-62
2021/08/11 09:37:48;;;;;;;6.22;4.07;;;;;;;21.27;100.00;101852.38;3602059;39;20040;-64
2021/08/11 09:40:17;;;;;;;7.00;4.10;;;;;;;21.56;100.00;101853.56;3603301;39;20035;-62
2021/08/11 09:42:45;;;;;;;;;;;;;;;21.39;100.00;101849.22;3602222;39;20315;-62
2021/08/11 09:48:17;;;;;;;4.90;4.03;;;;;;;21.77;100.00;101844.63;3639781;22;20136;-63
2021/08/11 09:50:46;;;;;;;7.32;4.00;;;;;;;21.29;100.00;101846.72;3608208;39;20034;-63
2021/08/11 09:53:15;;;;;;;7.25;3.60;;;;;;;21.79;100.00;101848.06;3610211;39;20036;-62
2021/08/11 09:56:02;;;;;;;5.47;3.80;;;;;;;21.64;100.00;101848.03;3609200;39;20042;-64
2021/08/11 09:58:30;;;;;;;5.22;3.65;;;;;;;21.84;100.00;101845.59;3608963;39;20071;-62
2021/08/11 10:00:56;;;;;;;5.35;3.30;;;;;;;22.25;100.00;101849.78;3612694;39;20076;-61
2021/08/11 10:03:24;;;;;;;4.50;3.10;;;;;;;21.87;100.00;101849.84;3611423;39;20137;-61
2021/08/11 10:05:52;;;;;;;6.63;3.50;;;;;;;21.89;100.00;101853.25;3610240;39;20052;-64
2021/08/11 10:08:31;;;;;;;5.18;2.85;;;;;;;21.96;100.00;101865.16;3610416;39;20044;-63
2021/08/11 10:10:57;;;;;;;5.35;3.63;;;;;;;21.83;100.00;101862.22;3610138;39;20379;-61
2021/08/11 10:13:25;;;;;;;4.82;2.88;;;;;;;21.95;100.00;101868.97;3612893;39;20354;-61
2021/08/11 10:15:52;;;;;;;5.30;3.50;;;;;;;21.70;100.00;101874.69;3611939;39;20028;-61
2021/08/11 10:18:24;;;;;;;5.78;3.30;;;;;;;22.19;100.00;101875.22;3611617;39;20413;-63
2021/08/11 10:20:53;;;;;;;6.35;3.15;;;;;;;22.09;100.00;101877.38;3610933;39;20040;-63
2021/08/11 10:23:20;;;;;;;5.47;2.92;;;;;;;22.41;100.00;101876.19;3609796;39;20426;-61
2021/08/11 10:25:48;;;;;;;4.00;2.90;;;;;;;22.72;100.00;101889.69;3609492;39;20042;-61
2021/08/11 10:28:19;;;;;;;6.70;3.10;;;;;;;22.61;100.00;101881.09;3609744;39;20039;-61
2021/08/11 10:30:47;;;;;;;4.25;2.83;;;;;;;22.44;100.00;101877.69;3608796;39;20032;-63
2021/08/11 10:33:15;;;;;;;5.15;2.95;;;;;;;22.20;100.00;101879.63;3608619;39;20030;-61
2021/08/11 10:35:44;;;;;;;4.80;3.33;;;;;;;22.40;100.00;101883.56;3611660;39;20055;-61
2021/08/11 10:38:11;;;;;;;4.05;2.70;;;;;;;22.76;100.00;101873.66;3612857;39;20031;-61
2021/08/11 10:40:40;;;;;;;6.80;2.95;;;;;;;22.47;100.00;101874.59;3611812;39;20047;-61
2021/08/11 10:43:07;;;;;;;4.93;2.83;;;;;;;22.48;100.00;101873.53;3611692;39;20039;-63
2021/08/11 10:45:33;;;;;;;3.97;2.95;;;;;;;22.81;100.00;101876.69;3610621;39;20040;-61
2021/08/11 10:48:00;;;;;;;5.65;2.90;;;;;;;22.99;100.00;101881.75;3610239;39;20058;-61
2021/08/11 10:50:43;;;;;;;4.82;3.22;;;;;;;22.78;100.00;101882.56;3610125;39;20042;-61
2021/08/11 10:53:10;;;;;;;6.47;3.63;;;;;;;22.73;100.00;101885.91;3609009;39;20391;-65
2021/08/11 10:55:42;;;;;;;6.03;2.83;;;;;;;22.78;100.00;101877.09;3608675;39;20296;-63
2021/08/11 10:58:08;;;;;;;5.30;3.13;;;;;;;22.88;100.00;101885.03;3608000;39;20068;-61
2021/08/11 11:03:06;;;;;;;4.78;2.97;;;;;;;22.65;100.00;101888.75;3606212;22;20059;-62
2021/08/11 11:06:03;;;;;;;4.88;3.00;;;;;;;23.38;100.00;101883.28;3603220;39;20044;-63
2021/08/11 11:08:35;;;;;;;5.13;3.50;;;;;;;23.22;100.00;101883.53;3601868;39;20084;-61
2021/08/11 11:11:34;;;;;;;4.50;2.88;;;;;;;23.52;100.00;101883.41;3600553;39;20512;-61
2021/08/11 11:17:02;;;;;;;4.70;2.88;;;;;;;23.34;100.00;101887.44;3631730;22;20051;-62
2021/08/11 11:19:28;;;;;;;5.55;3.20;;;;;;;23.26;100.00;101890.31;3612201;39;20023;-63
2021/08/11 11:21:56;;;;;;;4.68;3.28;;;;;;;23.31;100.00;101874.09;3610098;39;20038;-61
2021/08/11 11:24:48;;;;;;;4.60;3.33;;;;;;;23.96;100.00;101887.81;3610371;39;20059;-61
2021/08/11 11:27:56;;;;;;;5.75;3.55;;;;;;;23.65;100.00;101888.16;3610672;39;20156;-61
2021/08/11 11:30:37;;;;;;;4.70;3.00;;;;;;;23.54;100.00;101890.41;3608326;39;20079;-65